الصفحة الرئيسية
METAR-TAF:

METAR-TAF

مطار :

Imperatriz, مارانهاو, البرازيل

دائرة عرض: 05-32S, خط طول: 047-30W, ارتفاع: 123 متر

مراقبة الطقس الحالي

تاريخ ووقت الإصدار 45 دقيقة قبل الساعة 15:00UTC
رياح هادئة
درجة الحرارة 33°درجة مئوية
الرطوبة 59%
ضغط 1013 hPa
الرؤية 10 كم أو أكثر
غيوم مفككة على ارتفاع 2000 قدم

METAR: SBIZ 141500Z 00000KT 9999 BKN020 33/24 Q1013

زمن: 12:45 (15:45 UTC)

توقعات

تاريخ ووقت الإصدار 5ساعات و 45 دقيقة قبل الساعة 10:00UTC
التوقعات صالحة من14 الساعة 12 UTC إلى 14 الساعة 24 UTC
ريح 2 عقدة من الشرق/الشمال الشرقي
الرؤية 10 كم أو أكثر
غيوم قليلة على ارتفاع 2500 قدم
أصبح
من 14 الساعة 13 UTC إلى 14 الساعة 15 UTC
ريح 5 عقدة من الجنوب الشرقي
الرؤية 10 كم أو أكثر
غيوم متفرقة على ارتفاع 3000 قدم
أصبح
من 14 الساعة 17 UTC إلى 14 الساعة 19 UTC
ريح 5 عقدة من الجنوب
أصبح
من 14 الساعة 21 UTC إلى 14 الساعة 23 UTC
الرؤية 10 كم أو أكثر
الغيوم لا تقل 1500 م ولا وجود لمزنة ركامية السحاب الأسود

TAF: SBIZ 141000Z 1412/1424 07002KT 9999 FEW025 TN29/1412Z TX35/1417Z BECMG 1413/1415 13005KT 9999 SCT030 BECMG 1417/1419 17005KT BECMG 1421/1423 CAVOK RMK PDY

أرصاد الطقس والتوقعات من أكثر من 4000 مطار (تقارير الطقس للمطار METAR والتنبؤ بالطقس بالمطارTAF).

المحطات المتاحة هي النقط الصفراء والحمراء على الخريطة.

حرك المؤشر فوق النقطة لمعرفة اسم المحطة.

ثم انقر لمعرفة أرصاد وتوقعات الطقس.

لتغيير الخارطة: اضغط على الأزرار الخضراء مع رمز الصليب الأسود للتكبير. على الزر الأخضر مع شرطة للتصغير، أو على الأسهم الخضراء للخرائط المجاورة.


METAR-TAF: